createdAt,value
2022-08-08T00:01:52.334Z,85.10
2022-08-08T00:04:25.424Z,85.10
2022-08-08T00:07:15.964Z,85.10
2022-08-08T00:10:05.993Z,85.10
2022-08-08T00:13:10.024Z,85.20
2022-08-08T00:15:56.634Z,85.30
2022-08-08T00:18:36.614Z,85.20
2022-08-08T00:21:07.716Z,85.40
2022-08-08T00:24:06.802Z,85.50
2022-08-08T00:26:38.702Z,85.40
2022-08-08T00:29:45.962Z,85.40
2022-08-08T00:32:51.087Z,85.40
2022-08-08T00:35:26.314Z,85.50
2022-08-08T00:38:02.905Z,85.50
2022-08-08T00:41:07.414Z,85.60
2022-08-08T00:43:59.362Z,85.70
2022-08-08T00:46:56.983Z,85.70
2022-08-08T00:50:11.862Z,85.70
2022-08-08T00:53:21.134Z,85.80
2022-08-08T00:56:20.782Z,85.90
2022-08-08T00:59:44.432Z,85.90
2022-08-08T01:03:58.498Z,86.00
2022-08-08T01:06:08.293Z,86.20
2022-08-08T01:08:50.204Z,86.30
2022-08-08T01:11:19.055Z,86.40
2022-08-08T01:14:08.552Z,86.60
2022-08-08T01:17:01.256Z,86.50
2022-08-08T01:20:02.059Z,86.60
2022-08-08T01:23:01.301Z,86.70
2022-08-08T01:25:53.984Z,86.80
2022-08-08T01:28:41.243Z,86.90
2022-08-08T01:32:12.990Z,87.00
2022-08-08T01:34:57.300Z,87.10
2022-08-08T01:37:59.119Z,87.20
2022-08-08T01:41:00.348Z,87.30
2022-08-08T01:43:47.951Z,87.40
2022-08-08T01:46:36.016Z,87.50
2022-08-08T01:49:22.856Z,87.60
2022-08-08T01:52:57.270Z,87.60
2022-08-08T01:56:29.335Z,87.70
2022-08-08T01:58:38.386Z,87.70
2022-08-08T02:01:28.109Z,87.80
2022-08-08T02:04:37.299Z,87.90
2022-08-08T02:07:19.503Z,88.10
2022-08-08T02:10:03.529Z,88.30
2022-08-08T02:12:52.709Z,88.50
2022-08-08T02:15:34.829Z,88.60
2022-08-08T02:18:16.642Z,88.70
2022-08-08T02:21:21.799Z,88.90
2022-08-08T02:24:14.704Z,89.10
2022-08-08T02:26:52.925Z,89.30
2022-08-08T02:29:52.520Z,89.40
2022-08-08T02:32:22.761Z,89.70
2022-08-08T02:35:07.458Z,89.80
2022-08-08T02:38:15.662Z,89.90
2022-08-08T02:40:53.176Z,90.00
2022-08-08T02:44:37.556Z,90.00
2022-08-08T02:46:58.910Z,90.10
2022-08-08T02:49:58.500Z,90.20
2022-08-08T02:52:50.997Z,90.20
2022-08-08T02:55:24.041Z,90.30
2022-08-08T02:58:35.435Z,90.30
2022-08-08T03:01:50.090Z,90.40
2022-08-08T03:05:02.647Z,90.40
2022-08-08T03:07:57.922Z,90.40
2022-08-08T03:10:33.431Z,90.50
2022-08-08T03:13:34.042Z,90.50
2022-08-08T03:16:34.470Z,90.50
2022-08-08T03:19:22.072Z,90.50
2022-08-08T03:21:54.694Z,90.60
2022-08-08T03:24:25.845Z,90.50
2022-08-08T03:27:02.303Z,90.50
2022-08-08T03:29:54.855Z,90.50
2022-08-08T03:32:41.472Z,90.50
2022-08-08T03:35:10.320Z,90.50
2022-08-08T03:38:53.968Z,90.50
2022-08-08T03:40:30.542Z,90.60
2022-08-08T03:43:16.784Z,90.60
2022-08-08T03:46:05.285Z,90.70
2022-08-08T03:49:09.854Z,90.70
2022-08-08T03:51:40.300Z,90.70
2022-08-08T03:54:09.662Z,90.60
2022-08-08T03:56:36.618Z,90.60
2022-08-08T03:59:04.047Z,90.60
2022-08-08T04:02:15.971Z,90.70
2022-08-08T04:04:30.996Z,90.70
2022-08-08T04:07:01.558Z,90.70
2022-08-08T04:09:53.464Z,90.70
2022-08-08T04:12:16.057Z,90.70
2022-08-08T04:14:45.210Z,90.80
2022-08-08T04:17:22.428Z,90.80
2022-08-08T04:20:01.757Z,90.80
2022-08-08T04:22:30.397Z,90.80
2022-08-08T04:24:57.530Z,90.80
2022-08-08T04:28:03.172Z,90.80
2022-08-08T04:30:18.081Z,90.80
2022-08-08T04:32:50.018Z,90.80
2022-08-08T04:35:20.169Z,90.80
2022-08-08T04:37:49.401Z,90.80
2022-08-08T04:40:17.853Z,90.70
2022-08-08T04:42:46.797Z,90.70
2022-08-08T04:45:23.939Z,90.70
2022-08-08T04:47:53.375Z,90.70
2022-08-08T04:50:25.206Z,90.60
2022-08-08T04:53:04.962Z,90.60
2022-08-08T04:55:55.345Z,90.60
2022-08-08T04:58:23.261Z,90.60
2022-08-08T05:00:51.631Z,90.60
2022-08-08T05:04:10.765Z,90.60
2022-08-08T05:06:13.309Z,90.60
2022-08-08T05:08:44.809Z,90.50
2022-08-08T05:11:22.835Z,90.40
2022-08-08T05:13:57.961Z,90.40
2022-08-08T05:16:54.431Z,90.30
2022-08-08T05:20:09.655Z,90.20
2022-08-08T05:22:07.274Z,90.10
2022-08-08T05:24:34.715Z,90.20
2022-08-08T05:27:04.860Z,90.10
2022-08-08T05:29:31.895Z,90.10
2022-08-08T05:32:06.555Z,90.00
2022-08-08T05:34:41.904Z,89.60
2022-08-08T05:37:18.665Z,89.20
2022-08-08T05:39:57.075Z,88.90
2022-08-08T05:42:29.800Z,88.50
2022-08-08T05:45:00.922Z,88.10
2022-08-08T05:48:00.000Z,87.90
2022-08-08T05:50:33.566Z,87.80
2022-08-08T05:53:54.495Z,87.60
2022-08-08T05:56:08.306Z,87.30
2022-08-08T05:58:57.087Z,87.10
2022-08-08T06:01:56.799Z,87.00
2022-08-08T06:04:22.869Z,86.80
2022-08-08T06:07:00.413Z,86.50
2022-08-08T06:09:58.186Z,86.10
2022-08-08T06:12:30.948Z,85.90
2022-08-08T06:15:03.027Z,85.50
2022-08-08T06:17:51.157Z,85.30
2022-08-08T06:20:21.189Z,85.40
2022-08-08T06:22:49.364Z,85.10
2022-08-08T06:25:18.314Z,85.20
2022-08-08T06:28:03.504Z,84.90
2022-08-08T06:30:33.245Z,84.50
2022-08-08T06:33:01.014Z,84.40
2022-08-08T06:36:08.673Z,84.70
2022-08-08T06:38:29.000Z,84.70
2022-08-08T06:41:07.428Z,84.50
2022-08-08T06:43:40.904Z,84.20
2022-08-08T06:46:16.287Z,83.50
2022-08-08T06:48:43.753Z,83.10
2022-08-08T06:51:14.572Z,82.50
2022-08-08T06:53:51.371Z,82.70
2022-08-08T06:56:24.906Z,82.10
2022-08-08T06:58:53.218Z,82.10
2022-08-08T07:02:17.446Z,81.40
2022-08-08T07:04:37.202Z,82.30
2022-08-08T07:07:11.483Z,82.70
2022-08-08T07:09:59.449Z,82.60
2022-08-08T07:12:53.636Z,82.80
2022-08-08T07:16:05.350Z,82.80
2022-08-08T07:18:36.940Z,82.70
2022-08-08T07:21:19.407Z,82.80
2022-08-08T07:24:03.245Z,83.20
2022-08-08T07:26:35.405Z,82.70
2022-08-08T07:29:05.897Z,82.70
2022-08-08T07:31:36.767Z,82.90
2022-08-08T07:34:09.309Z,83.00
2022-08-08T07:36:48.123Z,83.00
2022-08-08T07:39:29.546Z,83.00
2022-08-08T07:42:13.472Z,82.80
2022-08-08T07:44:47.439Z,82.20
2022-08-08T07:47:14.348Z,81.40
2022-08-08T07:49:41.337Z,81.50
2022-08-08T07:52:19.635Z,80.60
2022-08-08T07:55:10.783Z,79.40
2022-08-08T07:57:50.630Z,78.90
2022-08-08T08:04:04.773Z,78.40
2022-08-08T08:06:38.647Z,78.10
2022-08-08T08:09:08.567Z,77.50
2022-08-08T08:11:51.162Z,76.60
2022-08-08T08:14:28.954Z,75.60
2022-08-08T08:16:56.437Z,76.30
2022-08-08T08:19:32.093Z,74.80
2022-08-08T08:22:12.767Z,74.70
2022-08-08T08:24:46.288Z,75.20
2022-08-08T08:27:13.749Z,74.80
2022-08-08T08:29:42.370Z,73.50
2022-08-08T08:32:10.969Z,71.60
2022-08-08T08:34:43.397Z,71.00
2022-08-08T08:37:20.304Z,70.40
2022-08-08T08:40:01.602Z,69.40
2022-08-08T08:42:36.205Z,68.70
2022-08-08T08:45:21.161Z,68.40
2022-08-08T08:47:54.894Z,67.90
2022-08-08T08:50:31.962Z,68.40
2022-08-08T08:53:27.512Z,67.20
2022-08-08T08:55:54.151Z,66.70
2022-08-08T08:58:30.459Z,67.00
2022-08-08T09:01:09.236Z,67.00
2022-08-08T09:03:47.740Z,64.80
2022-08-08T09:06:34.149Z,64.60
2022-08-08T09:09:19.190Z,64.00
2022-08-08T09:12:07.545Z,64.00
2022-08-08T09:14:35.206Z,63.20
2022-08-08T09:17:07.084Z,62.40
2022-08-08T09:21:58.400Z,63.70
2022-08-08T09:22:26.974Z,63.50
2022-08-08T09:24:55.947Z,62.70
2022-08-08T09:27:55.653Z,62.60
2022-08-08T09:30:14.548Z,62.10
2022-08-08T09:33:54.855Z,61.90
2022-08-08T09:35:49.834Z,61.80
2022-08-08T09:38:35.859Z,61.70
2022-08-08T09:41:54.856Z,61.70
2022-08-08T09:45:15.300Z,61.90
2022-08-08T09:48:04.848Z,62.40
2022-08-08T09:50:32.408Z,62.50
2022-08-08T09:53:23.747Z,62.00
2022-08-08T09:56:03.459Z,61.10
2022-08-08T09:58:41.296Z,61.20
2022-08-08T10:01:15.180Z,61.10
2022-08-08T10:04:04.953Z,61.20
2022-08-08T10:06:35.643Z,60.90
2022-08-08T10:09:03.481Z,60.40
2022-08-08T10:12:27.602Z,60.00
2022-08-08T10:14:28.518Z,60.10
2022-08-08T10:17:56.172Z,60.20
2022-08-08T10:20:00.037Z,59.80
2022-08-08T10:22:33.814Z,59.50
2022-08-08T10:25:05.759Z,59.90
2022-08-08T10:27:43.605Z,60.00
2022-08-08T10:30:16.557Z,59.60
2022-08-08T10:33:00.846Z,60.60
2022-08-08T10:36:08.502Z,60.40
2022-08-08T10:38:21.087Z,60.60
2022-08-08T10:40:53.243Z,60.30
2022-08-08T10:43:23.029Z,60.20
2022-08-08T10:45:56.644Z,60.00
2022-08-08T10:48:58.147Z,59.40
2022-08-08T10:51:47.033Z,58.70
2022-08-08T10:54:24.727Z,59.60
2022-08-08T10:56:59.876Z,59.40
2022-08-08T10:59:30.994Z,57.40
2022-08-08T11:01:59.203Z,58.90
2022-08-08T11:04:29.570Z,58.40
2022-08-08T11:07:00.812Z,56.20
2022-08-08T11:09:27.740Z,57.60
2022-08-08T11:12:05.410Z,56.90
2022-08-08T11:15:00.640Z,56.50
2022-08-08T11:18:01.296Z,53.80
2022-08-08T11:20:22.526Z,56.20
2022-08-08T11:22:59.298Z,55.40
2022-08-08T11:25:52.751Z,55.00
2022-08-08T11:28:25.588Z,55.80
2022-08-08T11:30:57.059Z,56.60
2022-08-08T11:33:51.592Z,56.00
2022-08-08T11:36:16.116Z,55.70
2022-08-08T11:38:54.781Z,55.70
2022-08-08T11:41:24.554Z,52.70
2022-08-08T11:43:53.785Z,53.10
2022-08-08T11:46:24.442Z,53.00
2022-08-08T11:48:52.673Z,53.50
2022-08-08T11:51:38.672Z,52.70
2022-08-08T11:54:26.742Z,52.80
2022-08-08T11:56:57.772Z,53.00
2022-08-08T11:59:58.226Z,53.10
2022-08-08T12:02:31.807Z,53.80
2022-08-08T12:05:13.075Z,53.40
2022-08-08T12:07:52.021Z,55.00
2022-08-08T12:10:22.101Z,54.20
2022-08-08T12:12:51.778Z,55.70
2022-08-08T12:15:51.046Z,53.60
2022-08-08T12:18:24.688Z,53.60
2022-08-08T12:20:58.929Z,52.30
2022-08-08T12:23:43.711Z,52.70
2022-08-08T12:26:28.555Z,52.60
2022-08-08T12:29:19.678Z,53.60
2022-08-08T12:31:53.148Z,54.00
2022-08-08T12:34:36.177Z,54.30
2022-08-08T12:37:40.711Z,51.30
2022-08-08T12:40:23.036Z,51.80
2022-08-08T12:42:52.690Z,51.60
2022-08-08T12:45:53.780Z,52.10
2022-08-08T12:48:36.633Z,52.50
2022-08-08T12:51:05.700Z,52.30
2022-08-08T12:53:58.648Z,52.10
2022-08-08T12:56:34.075Z,53.00
2022-08-08T12:59:01.385Z,52.80
2022-08-08T13:01:38.979Z,52.60
2022-08-08T13:04:19.378Z,52.60
2022-08-08T13:07:00.580Z,52.60
2022-08-08T13:10:04.136Z,51.80
2022-08-08T13:12:32.938Z,52.50
2022-08-08T13:15:03.950Z,52.00
2022-08-08T13:18:08.672Z,53.20
2022-08-08T13:20:20.757Z,52.10
2022-08-08T13:22:48.379Z,52.10
2022-08-08T13:25:21.193Z,52.90
2022-08-08T13:27:54.576Z,52.80
2022-08-08T13:30:26.651Z,52.30
2022-08-08T13:32:57.681Z,51.70
2022-08-08T13:35:29.720Z,52.50
2022-08-08T13:38:08.136Z,51.70
2022-08-08T13:40:40.982Z,52.90
2022-08-08T13:43:08.593Z,53.00
2022-08-08T13:45:36.929Z,53.00
2022-08-08T13:48:12.381Z,53.50
2022-08-08T13:50:51.033Z,52.30
2022-08-08T13:53:28.103Z,51.90
2022-08-08T13:56:01.286Z,52.50
2022-08-08T13:58:29.857Z,51.40
2022-08-08T14:00:57.168Z,52.80
2022-08-08T14:03:53.563Z,52.00
2022-08-08T14:06:32.436Z,51.90
2022-08-08T14:09:25.381Z,51.40
2022-08-08T14:11:48.794Z,52.50
2022-08-08T14:14:20.513Z,52.10
2022-08-08T14:16:50.970Z,53.40
2022-08-08T14:19:22.819Z,51.90
2022-08-08T14:22:26.483Z,52.70
2022-08-08T14:24:55.042Z,53.10
2022-08-08T14:27:37.458Z,52.40
2022-08-08T14:30:18.503Z,52.10
2022-08-08T14:32:54.845Z,52.90
2022-08-08T14:35:36.111Z,53.40
2022-08-08T14:38:34.555Z,53.20
2022-08-08T14:40:59.512Z,53.10
2022-08-08T14:44:02.266Z,54.10
2022-08-08T14:46:22.307Z,52.80
2022-08-08T14:49:02.656Z,52.40
2022-08-08T14:51:47.144Z,53.10
2022-08-08T14:54:29.065Z,52.90
2022-08-08T14:56:57.285Z,53.30
2022-08-08T14:59:43.872Z,53.60
2022-08-08T15:02:14.075Z,53.90
2022-08-08T15:04:43.072Z,54.20
2022-08-08T15:07:24.258Z,54.80
2022-08-08T15:09:57.380Z,54.60
2022-08-08T15:12:27.720Z,54.50
2022-08-08T15:14:55.102Z,54.50
2022-08-08T15:17:22.698Z,55.40
2022-08-08T15:19:51.045Z,54.90
2022-08-08T15:22:23.844Z,54.40
2022-08-08T15:24:51.518Z,54.60
2022-08-08T15:27:58.397Z,54.10
2022-08-08T15:30:08.056Z,54.10
2022-08-08T15:32:39.327Z,54.60
2022-08-08T15:35:07.542Z,54.00
2022-08-08T15:37:34.474Z,53.90
2022-08-08T15:40:01.773Z,54.30
2022-08-08T15:42:32.182Z,54.00
2022-08-08T15:45:00.950Z,54.00
2022-08-08T15:47:28.717Z,54.50
2022-08-08T15:49:58.325Z,55.50
2022-08-08T15:52:25.788Z,55.60
2022-08-08T15:54:53.207Z,55.70
2022-08-08T15:57:21.141Z,55.70
2022-08-08T16:00:05.536Z,55.50
2022-08-08T16:02:35.104Z,55.60
2022-08-08T16:05:02.380Z,56.20
2022-08-08T16:07:39.523Z,56.60
2022-08-08T16:13:11.263Z,56.70
2022-08-08T16:13:33.512Z,56.90
2022-08-08T16:15:59.438Z,57.40
2022-08-08T16:18:30.563Z,58.00
2022-08-08T16:21:00.188Z,57.70
2022-08-08T16:23:31.780Z,58.00
2022-08-08T16:26:05.074Z,57.30
2022-08-08T16:28:41.451Z,56.60
2022-08-08T16:31:09.331Z,56.80
2022-08-08T16:33:39.285Z,56.80
2022-08-08T16:36:09.799Z,56.60
2022-08-08T16:38:46.553Z,56.40
2022-08-08T16:41:22.709Z,56.30
2022-08-08T16:43:51.273Z,56.10
2022-08-08T16:46:37.295Z,56.00
2022-08-08T16:49:06.288Z,56.10
2022-08-08T16:55:05.348Z,55.80
2022-08-08T16:55:06.672Z,56.00
2022-08-08T16:58:13.322Z,55.90
2022-08-08T16:59:58.952Z,56.10
2022-08-08T17:02:32.588Z,56.90
2022-08-08T17:05:13.080Z,57.10
2022-08-08T17:07:41.775Z,57.70
2022-08-08T17:10:10.258Z,58.00
2022-08-08T17:12:38.701Z,58.50
2022-08-08T17:15:17.970Z,58.80
2022-08-08T17:18:03.307Z,59.40
2022-08-08T17:20:39.690Z,60.00
2022-08-08T17:23:25.852Z,60.00
2022-08-08T17:25:55.262Z,60.00
2022-08-08T17:28:34.170Z,60.30
2022-08-08T17:31:39.075Z,60.20
2022-08-08T17:34:48.603Z,60.20
2022-08-08T17:37:02.955Z,60.30
2022-08-08T17:40:03.572Z,60.50
2022-08-08T17:42:12.854Z,60.60
2022-08-08T17:44:44.314Z,60.70
2022-08-08T17:47:16.336Z,60.90
2022-08-08T17:49:52.632Z,61.00
2022-08-08T17:52:23.269Z,61.00
2022-08-08T17:54:56.175Z,61.20
2022-08-08T17:57:23.751Z,61.20
2022-08-08T17:59:51.772Z,61.30
2022-08-08T18:02:28.432Z,61.40
2022-08-08T18:04:58.420Z,61.50
2022-08-08T18:08:02.608Z,61.60
2022-08-08T18:10:15.477Z,61.80
2022-08-08T18:12:43.006Z,62.00
2022-08-08T18:15:13.572Z,62.00
2022-08-08T18:18:09.383Z,62.10
2022-08-08T18:20:43.676Z,62.40
2022-08-08T18:23:15.499Z,62.50
2022-08-08T18:25:43.678Z,62.70
2022-08-08T18:28:13.227Z,62.70
2022-08-08T18:30:42.834Z,62.80
2022-08-08T18:33:36.296Z,63.10
2022-08-08T18:36:02.955Z,63.10
2022-08-08T18:38:31.094Z,63.60
2022-08-08T18:40:59.412Z,63.60
2022-08-08T18:43:42.807Z,63.90
2022-08-08T18:46:54.983Z,64.30
2022-08-08T18:48:57.912Z,64.60
2022-08-08T18:51:53.649Z,65.00
2022-08-08T18:54:22.849Z,65.40
2022-08-08T18:56:57.296Z,66.10
2022-08-08T18:59:24.630Z,66.80
2022-08-08T19:02:25.346Z,67.70
2022-08-08T19:04:50.550Z,68.60
2022-08-08T19:07:22.886Z,69.90
2022-08-08T19:10:14.133Z,71.00
2022-08-08T19:12:38.437Z,72.10
2022-08-08T19:15:11.324Z,73.20
2022-08-08T19:17:47.922Z,74.30
2022-08-08T19:20:25.928Z,75.30
2022-08-08T19:22:53.242Z,76.10
2022-08-08T19:26:02.482Z,76.70
2022-08-08T19:28:19.498Z,77.40
2022-08-08T19:31:03.402Z,78.10
2022-08-08T19:33:51.624Z,78.60
2022-08-08T19:36:25.044Z,79.10
2022-08-08T19:38:54.352Z,79.50
2022-08-08T19:41:21.776Z,80.00
2022-08-08T19:44:02.638Z,80.30
2022-08-08T19:46:33.366Z,80.50
2022-08-08T19:49:01.284Z,81.20
2022-08-08T19:51:34.063Z,81.50
2022-08-08T19:54:02.000Z,81.70
2022-08-08T19:56:40.189Z,82.00
2022-08-08T19:59:09.109Z,82.10
2022-08-08T20:02:01.626Z,82.50
2022-08-08T20:04:24.041Z,82.70
2022-08-08T20:06:51.119Z,82.80
2022-08-08T20:09:22.458Z,83.00
2022-08-08T20:11:50.676Z,83.30
2022-08-08T20:14:35.570Z,83.40
2022-08-08T20:17:04.320Z,83.60
2022-08-08T20:19:34.307Z,83.80
2022-08-08T20:22:20.511Z,84.00
2022-08-08T20:24:48.527Z,84.20
2022-08-08T20:27:19.909Z,84.40
2022-08-08T20:29:55.937Z,84.50
2022-08-08T20:32:29.923Z,84.60
2022-08-08T20:35:01.749Z,84.80
2022-08-08T20:37:37.144Z,84.90
2022-08-08T20:40:16.815Z,85.00
2022-08-08T20:42:55.176Z,85.10
2022-08-08T20:45:54.671Z,85.10
2022-08-08T20:48:09.727Z,85.30
2022-08-08T20:50:36.962Z,85.50
2022-08-08T20:53:16.180Z,85.50
2022-08-08T20:55:45.219Z,85.70
2022-08-08T20:58:23.248Z,85.80
2022-08-08T21:00:50.438Z,85.90
2022-08-08T21:03:17.481Z,86.00
2022-08-08T21:05:49.350Z,86.00
2022-08-08T21:08:36.560Z,86.10
2022-08-08T21:11:13.130Z,86.10
2022-08-08T21:13:41.714Z,86.20
2022-08-08T21:16:18.092Z,86.30
2022-08-08T21:18:57.281Z,86.40
2022-08-08T21:21:39.737Z,86.50
2022-08-08T21:24:22.193Z,86.50
2022-08-08T21:26:55.618Z,86.60
2022-08-08T21:30:05.390Z,86.90
2022-08-08T21:32:14.152Z,87.00
2022-08-08T21:34:51.857Z,87.00
2022-08-08T21:37:53.183Z,87.10
2022-08-08T21:40:11.502Z,87.30
2022-08-08T21:42:39.683Z,87.40
2022-08-08T21:45:44.851Z,87.50
2022-08-08T21:48:19.799Z,87.50
2022-08-08T21:50:43.164Z,87.70
2022-08-08T21:54:36.961Z,87.70
2022-08-08T21:56:27.007Z,87.70
2022-08-08T21:58:44.351Z,87.90
2022-08-08T22:01:39.252Z,88.00
2022-08-08T22:04:10.475Z,88.20
2022-08-08T22:06:40.423Z,88.30
2022-08-08T22:09:09.644Z,88.30
2022-08-08T22:12:02.337Z,88.50
2022-08-08T22:14:26.475Z,88.50
2022-08-08T22:16:54.089Z,88.60
2022-08-08T22:19:23.663Z,88.70
2022-08-08T22:21:52.987Z,88.70
2022-08-08T22:24:23.948Z,88.80
2022-08-08T22:27:02.356Z,88.80
2022-08-08T22:29:58.805Z,88.90
2022-08-08T22:32:18.686Z,89.10
2022-08-08T22:34:51.307Z,89.20
2022-08-08T22:37:49.759Z,89.30
2022-08-08T22:40:16.442Z,89.30
2022-08-08T22:42:47.160Z,89.40
2022-08-08T22:45:15.732Z,89.40
2022-08-08T22:47:47.215Z,89.50
2022-08-08T22:50:25.415Z,89.60
2022-08-08T22:53:22.395Z,89.60
2022-08-08T22:55:58.820Z,89.70
2022-08-08T22:58:34.070Z,89.90
2022-08-08T23:02:00.554Z,89.90
2022-08-08T23:03:55.195Z,90.00
2022-08-08T23:06:26.627Z,90.00
2022-08-08T23:08:58.713Z,90.00
2022-08-08T23:11:31.208Z,90.10
2022-08-08T23:14:20.494Z,90.10
2022-08-08T23:16:54.538Z,90.20
2022-08-08T23:19:25.212Z,90.20
2022-08-08T23:21:52.466Z,90.20
2022-08-08T23:24:23.134Z,90.20
2022-08-08T23:26:53.067Z,90.30
2022-08-08T23:29:24.755Z,90.40
2022-08-08T23:31:52.044Z,90.40
2022-08-08T23:34:19.607Z,90.50
2022-08-08T23:36:47.902Z,90.50
2022-08-08T23:39:15.649Z,90.60
2022-08-08T23:41:45.518Z,90.60
2022-08-08T23:44:14.573Z,90.70
2022-08-08T23:49:06.163Z,90.70
2022-08-08T23:49:28.943Z,90.80
2022-08-08T23:52:06.696Z,90.80
2022-08-08T23:54:43.485Z,90.80
2022-08-08T23:57:26.623Z,90.90
2022-08-08T23:59:55.647Z,91.00
